AirNav   Everest Fuels
 
 1377 users online  

73C Lancaster Municipal Airport
Lancaster, Wisconsin, USA

GOING TO LANCASTER?


FAA INFORMATION EFFECTIVE 18 JUNE 2020

Location

FAA Identifier: 73C
Lat/Long: 42-46-57.1000N 090-40-51.9000W
42-46.951667N 090-40.865000W
42.7825278,-90.6810833
(estimated)
Elevation: 1015.6 ft. / 310 m (estimated)
Variation: 01E (1985)
From city: 4 miles S of LANCASTER, WI
Time zone: UTC -5 (UTC -6 during Standard Time)
Zip code: 53813

Airport Operations

Airport use: Open to the public
Activation date: 04/1967
Control tower: no
ARTCC: CHICAGO CENTER
FSS: GREEN BAY FLIGHT SERVICE STATION
NOTAMs facility: GRB (NOTAM-D service available)
Attendance: UNATNDD
Wind indicator: lighted
Segmented circle: no
Lights: SS-SR
Beacon: white-green (lighted land airport)
Operates sunset to sunrise.

Airport Communications

CTAF/UNICOM: 122.8
WX AWOS-3 at PVB (12 nm SE): 120.575 (608-348-3637)

Nearby radio navigation aids

VOR radial/distance  VOR name  Freq  Var
DBQr359/22.9DUBUQUE VORTAC115.8004E
LNRr218/39.0LONE ROCK VOR/DME112.8000E

Airport Services

Fuel available: 100LL
24 HR SELF SVC FUEL AVBL WITH CREDIT CARD.
Parking: hangars

Runway Information

Runway 18/36

Dimensions: 3300 x 60 ft. / 1006 x 18 m
Surface: asphalt, in good condition
Weight bearing capacity: 
Single wheel: 13.0
Runway edge lights: low intensity
RUNWAY 18  RUNWAY 36
Latitude: 42-47.223385N42-46.680388N
Longitude: 090-40.873990W090-40.856078W
Elevation: 1015.1 ft.1008.5 ft.
Traffic pattern: leftleft
Runway heading: 178 magnetic, 179 true358 magnetic, 359 true
Markings: nonprecision, in good conditionnonprecision, in good condition
Runway end identifier lights: nono
Touchdown point: yes, no lightsyes, no lights
Obstructions: 10 ft. road, 350 ft. from runway, 15:1 slope to clear15 ft. road, 325 ft. from runway, 8:1 slope to clear

Airport Ownership and Management from official FAA records

Ownership: Publicly-owned
Owner: CITY OF LANCASTER
CITY HALL, 206 S MADISON STREET
LANCASTER, WI 53813
Phone (608) 723-4246
Manager: JOHN HAUTH
206 S MADISON STREET
LANCASTER, WI 53813
Phone 608-723-7543
EMAIL ADDRESS: JOHNH@LANCASTERWISCONSIN.COM (ALL LOWER CASE)

Airport Operational Statistics

Aircraft based on the field: 10
Single engine airplanes: 8
Multi engine airplanes: 1
Gliders airplanes: 1
    
Aircraft operations: avg 23/day *
52% local general aviation
48% transient general aviation
* for 12-month period ending 24 May 2018

Additional Remarks

OCNL VEHICLES/PEOPLE CROSSING RY TO REACH HGR AREA ON EAST SIDE OF RY.
RY 18/36 35 FT PLINE PARALLELS W SIDE 365 FT FM CNTRLN.
FOR CD CTC CHICAGO ARTCC AT 630-906-8921.

Instrument Procedures

There are no published instrument procedures at 73C.

Some nearby airports with instrument procedures:

KPVB - Platteville Municipal Airport (12 nm SE)
KMRJ - Iowa County Airport (21 nm E)
KOVS - Boscobel Airport (23 nm N)
KDBQ - Dubuque Regional Airport (23 nm S)
KPDC - Prairie du Chien Municipal Airport (24 nm NW)
 
Loc | Ops | Rwys | IFR | FBO | Links
Com | Nav | Svcs | Stats | Notes
Area around 73C (Lancaster Municipal Airport)
 
Road maps at: MapQuest Bing Google
 
Aerial photo
WARNING: Photo may not be current or correct
Aerial photo of 73C (Lancaster Municipal Airport)
Photo by Mathieu Labs.
Photo taken 05-May-2009

Do you have a better or more recent aerial photo of Lancaster Municipal Airport that you would like to share? If so, please send us your photo.

 
Sectional chart

 
Airport distance calculator
Flying to Lancaster Municipal Airport? Find the distance to fly.

From to 73C

Sunrise and sunset
Times for 09-Jul-2020
 Local
(UTC-5)
 Zulu
(UTC)
Morning civil twilight05:0110:01
Sunrise05:3510:35
Sunset20:4101:41
Evening civil twilight21:1602:16

Current date and time
Zulu (UTC)  09-Jul-2020 19:14:42
Local (UTC-5)  09-Jul-2020 14:14:42
 
METAR
KPVB 
12nm SE 
091855Z AUTO 19015G27KT 7SM SCT027 BKN035 BKN047 23/22 A2981 RMK AO1 P0001 T02320217
KMRJ 
21nm E 
091855Z AUTO 15010G16KT 10SM SCT032 30/21 A2981 RMK AO2
KOVS 
22nm N 
091853Z AUTO 00000KT 10SM CLR 30/23 A2976 RMK AO2 LTG DSNT NE AND S SLP073 T03000228
KDBQ 
23nm S 
091853Z 08017G25KT 10SM FEW037 SCT060 BKN100 24/20 A2980 RMK AO2 PK WND 07030/1839 WSHFT 1800 LTG DSNT N RAB1759E17 TSE23 SLP083 P0002 T02390200
TAF
KDBQ 
23nm S 
091740Z 0918/1018 18010KT 6SM TSRA BR SCT030CB FM091900 17010KT P6SM SCT050 TEMPO 0920/0923 2SM TSRA BR SCT009 OVC030CB FM092300 25007KT 5SM -RA BR OVC040 FM100400 32007KT 6SM BR BKN100 FM101200 32010KT P6SM SKC
NOTAMs
Click for the latest NOTAMs
NOTAMs are issued by the DoD/FAA and will open in a separate window not controlled by AirNav.

 

 
 

FBO, Fuel Providers, and Aircraft Ground Support

  
 Business Name 
 
 Contact 
 
 Services / Description 
 
Fuel Prices
 
Comments
  
Lancaster Municipal Airport 608-723-7543
no information available

If you are affiliated with Lancaster Municipal Airport and would like to show here your services, contact info, web link, logo, and more, click here
100LL
SS $3.90 
 Updated 24-Jun-2020
 
   write
SS=Self service
Update Fuel Prices
 

Would you like to see your business listed on this page?

 If your business provides an interesting product or service to pilots, flight crews, aircraft, or users of the Lancaster Municipal Airport, you should consider listing it here.  To start the listing process, click on the button below
 
Add a business
 

Other Pages about Lancaster Municipal Airport

lancasterwisconsin.com/index.asp?SEC=98D463A1-AF89-4319-B8F3-59F9E2384414&Type=B_BASIC
 
Update a link
 
Copyright © AirNav, LLC. All rights reserved. Privacy Policy  Contact